sensor_id;sensor_type;location;lat;lon;timestamp;pressure;altitude;pressure_sealevel;temperature;humidity
77877;BME280;67251;50.844;7.978;2024-03-07T00:02:04;99587.84;;;-2.35;100.00
77877;BME280;67251;50.844;7.978;2024-03-07T00:04:30;99590.16;;;-2.30;100.00
77877;BME280;67251;50.844;7.978;2024-03-07T00:06:55;99591.53;;;-2.24;100.00
77877;BME280;67251;50.844;7.978;2024-03-07T00:09:21;99587.88;;;-2.09;100.00
77877;BME280;67251;50.844;7.978;2024-03-07T00:11:50;99592.72;;;-1.90;100.00
77877;BME280;67251;50.844;7.978;2024-03-07T00:14:15;99590.44;;;-1.82;100.00
77877;BME280;67251;50.844;7.978;2024-03-07T00:16:40;99590.63;;;-1.85;100.00
77877;BME280;67251;50.844;7.978;2024-03-07T00:19:06;99606.16;;;-1.95;100.00
77877;BME280;67251;50.844;7.978;2024-03-07T00:21:31;99605.41;;;-2.10;100.00
77877;BME280;67251;50.844;7.978;2024-03-07T00:23:57;99605.47;;;-2.24;100.00
77877;BME280;67251;50.844;7.978;2024-03-07T00:26:22;99605.44;;;-2.37;100.00
77877;BME280;67251;50.844;7.978;2024-03-07T00:28:47;99599.75;;;-2.43;100.00
77877;BME280;67251;50.844;7.978;2024-03-07T00:31:13;99599.94;;;-2.46;100.00
77877;BME280;67251;50.844;7.978;2024-03-07T00:33:38;99602.75;;;-2.49;100.00
77877;BME280;67251;50.844;7.978;2024-03-07T00:36:04;99599.06;;;-2.60;100.00
77877;BME280;67251;50.844;7.978;2024-03-07T00:38:31;99594.34;;;-2.67;100.00
77877;BME280;67251;50.844;7.978;2024-03-07T00:40:56;99598.44;;;-2.63;100.00
77877;BME280;67251;50.844;7.978;2024-03-07T00:43:21;99599.22;;;-2.48;100.00
77877;BME280;67251;50.844;7.978;2024-03-07T00:45:47;99594.97;;;-2.24;100.00
77877;BME280;67251;50.844;7.978;2024-03-07T00:48:15;99589.09;;;-2.27;100.00
77877;BME280;67251;50.844;7.978;2024-03-07T00:50:41;99595.47;;;-2.32;100.00
77877;BME280;67251;50.844;7.978;2024-03-07T00:53:08;99598.63;;;-2.39;100.00
77877;BME280;67251;50.844;7.978;2024-03-07T00:55:33;99596.31;;;-2.44;100.00
77877;BME280;67251;50.844;7.978;2024-03-07T00:57:58;99595.59;;;-2.60;100.00
77877;BME280;67251;50.844;7.978;2024-03-07T01:00:24;99590.53;;;-2.76;100.00
77877;BME280;67251;50.844;7.978;2024-03-07T01:02:49;99598.38;;;-2.76;100.00
77877;BME280;67251;50.844;7.978;2024-03-07T01:05:18;99590.72;;;-2.52;100.00
77877;BME280;67251;50.844;7.978;2024-03-07T01:07:44;99591.06;;;-2.31;100.00
77877;BME280;67251;50.844;7.978;2024-03-07T01:10:12;99586.69;;;-2.18;100.00
77877;BME280;67251;50.844;7.978;2024-03-07T01:12:38;99585.44;;;-2.12;100.00
77877;BME280;67251;50.844;7.978;2024-03-07T01:15:03;99587.75;;;-2.08;100.00
77877;BME280;67251;50.844;7.978;2024-03-07T01:17:32;99587.66;;;-1.93;100.00
77877;BME280;67251;50.844;7.978;2024-03-07T01:19:58;99576.16;;;-1.78;100.00
77877;BME280;67251;50.844;7.978;2024-03-07T01:22:23;99580.25;;;-1.74;100.00
77877;BME280;67251;50.844;7.978;2024-03-07T01:24:49;99580.56;;;-1.78;100.00
77877;BME280;67251;50.844;7.978;2024-03-07T01:27:16;99581.19;;;-2.00;100.00
77877;BME280;67251;50.844;7.978;2024-03-07T01:29:41;99581.13;;;-2.26;100.00
77877;BME280;67251;50.844;7.978;2024-03-07T01:32:06;99581.50;;;-2.45;100.00
77877;BME280;67251;50.844;7.978;2024-03-07T01:34:33;99584.28;;;-2.61;100.00
77877;BME280;67251;50.844;7.978;2024-03-07T01:36:58;99582.50;;;-2.73;100.00
77877;BME280;67251;50.844;7.978;2024-03-07T01:42:11;99576.78;;;-2.79;100.00
77877;BME280;67251;50.844;7.978;2024-03-07T01:44:36;99573.50;;;-2.83;100.00
77877;BME280;67251;50.844;7.978;2024-03-07T01:47:02;99578.66;;;-2.81;100.00
77877;BME280;67251;50.844;7.978;2024-03-07T01:49:29;99575.53;;;-2.74;100.00
77877;BME280;67251;50.844;7.978;2024-03-07T01:51:55;99570.53;;;-2.64;100.00
77877;BME280;67251;50.844;7.978;2024-03-07T01:54:22;99571.31;;;-2.62;100.00
77877;BME280;67251;50.844;7.978;2024-03-07T01:56:47;99560.00;;;-2.63;100.00
77877;BME280;67251;50.844;7.978;2024-03-07T01:59:13;99569.94;;;-2.55;100.00
77877;BME280;67251;50.844;7.978;2024-03-07T02:01:40;99571.66;;;-2.41;100.00
77877;BME280;67251;50.844;7.978;2024-03-07T02:04:05;99571.50;;;-2.25;100.00
77877;BME280;67251;50.844;7.978;2024-03-07T02:06:31;99563.56;;;-2.11;100.00
77877;BME280;67251;50.844;7.978;2024-03-07T02:08:57;99560.31;;;-2.02;100.00
77877;BME280;67251;50.844;7.978;2024-03-07T02:11:22;99557.69;;;-2.02;100.00
77877;BME280;67251;50.844;7.978;2024-03-07T02:13:49;99565.88;;;-2.07;100.00
77877;BME280;67251;50.844;7.978;2024-03-07T02:16:14;99560.28;;;-2.15;100.00
77877;BME280;67251;50.844;7.978;2024-03-07T02:18:39;99556.09;;;-2.17;100.00
77877;BME280;67251;50.844;7.978;2024-03-07T02:21:08;99559.66;;;-2.18;100.00
77877;BME280;67251;50.844;7.978;2024-03-07T02:23:37;99556.84;;;-2.15;100.00
77877;BME280;67251;50.844;7.978;2024-03-07T02:26:03;99559.97;;;-2.10;100.00
77877;BME280;67251;50.844;7.978;2024-03-07T02:28:29;99549.25;;;-2.07;100.00
77877;BME280;67251;50.844;7.978;2024-03-07T02:30:54;99548.34;;;-2.06;100.00
77877;BME280;67251;50.844;7.978;2024-03-07T02:33:20;99550.63;;;-2.14;100.00
77877;BME280;67251;50.844;7.978;2024-03-07T02:35:45;99541.72;;;-2.24;100.00
77877;BME280;67251;50.844;7.978;2024-03-07T02:38:10;99546.75;;;-2.34;100.00
77877;BME280;67251;50.844;7.978;2024-03-07T02:40:36;99542.53;;;-2.37;100.00
77877;BME280;67251;50.844;7.978;2024-03-07T02:43:01;99542.56;;;-2.24;100.00
77877;BME280;67251;50.844;7.978;2024-03-07T02:45:30;99547.00;;;-2.12;100.00
77877;BME280;67251;50.844;7.978;2024-03-07T02:47:55;99533.03;;;-1.99;100.00
77877;BME280;67251;50.844;7.978;2024-03-07T02:50:21;99536.69;;;-1.89;100.00
77877;BME280;67251;50.844;7.978;2024-03-07T02:52:49;99533.44;;;-1.80;100.00
77877;BME280;67251;50.844;7.978;2024-03-07T02:55:17;99527.47;;;-1.69;100.00
77877;BME280;67251;50.844;7.978;2024-03-07T02:57:44;99524.50;;;-1.65;100.00
77877;BME280;67251;50.844;7.978;2024-03-07T03:00:11;99527.03;;;-1.63;100.00
77877;BME280;67251;50.844;7.978;2024-03-07T03:02:48;99524.28;;;-1.62;100.00
77877;BME280;67251;50.844;7.978;2024-03-07T03:05:15;99522.31;;;-1.58;100.00
77877;BME280;67251;50.844;7.978;2024-03-07T03:07:41;99523.00;;;-1.56;100.00
77877;BME280;67251;50.844;7.978;2024-03-07T03:10:07;99519.47;;;-1.55;100.00
77877;BME280;67251;50.844;7.978;2024-03-07T03:12:37;99522.69;;;-1.51;100.00
77877;BME280;67251;50.844;7.978;2024-03-07T03:15:04;99515.25;;;-1.45;100.00
77877;BME280;67251;50.844;7.978;2024-03-07T03:17:30;99518.59;;;-1.43;100.00
77877;BME280;67251;50.844;7.978;2024-03-07T03:19:56;99514.91;;;-1.40;100.00
77877;BME280;67251;50.844;7.978;2024-03-07T03:22:22;99518.47;;;-1.41;100.00
77877;BME280;67251;50.844;7.978;2024-03-07T03:24:47;99513.22;;;-1.41;100.00
77877;BME280;67251;50.844;7.978;2024-03-07T03:27:12;99504.63;;;-1.43;100.00
77877;BME280;67251;50.844;7.978;2024-03-07T03:29:38;99506.53;;;-1.45;100.00
77877;BME280;67251;50.844;7.978;2024-03-07T03:32:03;99507.06;;;-1.53;100.00
77877;BME280;67251;50.844;7.978;2024-03-07T03:34:29;99506.03;;;-1.63;100.00
77877;BME280;67251;50.844;7.978;2024-03-07T03:36:54;99505.72;;;-1.71;100.00
77877;BME280;67251;50.844;7.978;2024-03-07T03:39:19;99508.78;;;-1.77;100.00
77877;BME280;67251;50.844;7.978;2024-03-07T03:41:46;99500.59;;;-1.86;100.00
77877;BME280;67251;50.844;7.978;2024-03-07T03:44:11;99505.22;;;-1.89;100.00
77877;BME280;67251;50.844;7.978;2024-03-07T03:46:36;99507.31;;;-1.94;100.00
77877;BME280;67251;50.844;7.978;2024-03-07T03:49:02;99514.25;;;-1.93;100.00
77877;BME280;67251;50.844;7.978;2024-03-07T03:51:27;99505.66;;;-1.95;100.00
77877;BME280;67251;50.844;7.978;2024-03-07T03:53:53;99503.66;;;-2.04;100.00
77877;BME280;67251;50.844;7.978;2024-03-07T03:56:18;99500.41;;;-2.21;100.00
77877;BME280;67251;50.844;7.978;2024-03-07T03:58:58;99497.91;;;-2.35;100.00
77877;BME280;67251;50.844;7.978;2024-03-07T04:01:23;99497.56;;;-2.43;100.00
77877;BME280;67251;50.844;7.978;2024-03-07T04:03:49;99493.81;;;-2.39;100.00
77877;BME280;67251;50.844;7.978;2024-03-07T04:06:14;99495.69;;;-2.28;100.00
77877;BME280;67251;50.844;7.978;2024-03-07T04:08:40;99498.09;;;-2.13;100.00
77877;BME280;67251;50.844;7.978;2024-03-07T04:11:05;99492.31;;;-1.80;100.00
77877;BME280;67251;50.844;7.978;2024-03-07T04:13:34;99487.56;;;-1.62;100.00
77877;BME280;67251;50.844;7.978;2024-03-07T04:16:00;99489.88;;;-1.70;100.00
77877;BME280;67251;50.844;7.978;2024-03-07T04:18:25;99489.69;;;-1.80;100.00
77877;BME280;67251;50.844;7.978;2024-03-07T04:20:51;99496.50;;;-1.90;100.00
77877;BME280;67251;50.844;7.978;2024-03-07T04:23:16;99496.50;;;-2.02;100.00
77877;BME280;67251;50.844;7.978;2024-03-07T04:25:43;99500.41;;;-2.08;100.00
77877;BME280;67251;50.844;7.978;2024-03-07T04:28:09;99505.34;;;-2.16;100.00
77877;BME280;67251;50.844;7.978;2024-03-07T04:30:34;99508.78;;;-2.28;100.00
77877;BME280;67251;50.844;7.978;2024-03-07T04:32:59;99500.09;;;-2.29;100.00
77877;BME280;67251;50.844;7.978;2024-03-07T04:35:25;99509.00;;;-2.32;100.00
77877;BME280;67251;50.844;7.978;2024-03-07T04:37:50;99507.09;;;-2.42;100.00
77877;BME280;67251;50.844;7.978;2024-03-07T04:40:17;99505.63;;;-2.46;100.00
77877;BME280;67251;50.844;7.978;2024-03-07T04:42:44;99499.44;;;-2.45;100.00
77877;BME280;67251;50.844;7.978;2024-03-07T04:45:11;99505.84;;;-2.37;100.00
77877;BME280;67251;50.844;7.978;2024-03-07T04:47:42;99504.88;;;-2.36;100.00
77877;BME280;67251;50.844;7.978;2024-03-07T04:50:08;99503.34;;;-2.38;100.00
77877;BME280;67251;50.844;7.978;2024-03-07T04:52:37;99502.38;;;-2.37;100.00
77877;BME280;67251;50.844;7.978;2024-03-07T04:55:04;99496.41;;;-2.14;100.00
77877;BME280;67251;50.844;7.978;2024-03-07T04:57:30;99497.69;;;-2.07;100.00
77877;BME280;67251;50.844;7.978;2024-03-07T04:59:55;99501.16;;;-2.06;100.00
77877;BME280;67251;50.844;7.978;2024-03-07T05:02:22;99497.47;;;-2.03;100.00
77877;BME280;67251;50.844;7.978;2024-03-07T05:04:48;99498.94;;;-2.12;100.00
77877;BME280;67251;50.844;7.978;2024-03-07T05:07:15;99505.88;;;-2.24;100.00
77877;BME280;67251;50.844;7.978;2024-03-07T05:09:41;99508.38;;;-2.35;100.00
77877;BME280;67251;50.844;7.978;2024-03-07T05:12:06;99504.81;;;-2.34;100.00
77877;BME280;67251;50.844;7.978;2024-03-07T05:14:31;99509.94;;;-2.33;100.00
77877;BME280;67251;50.844;7.978;2024-03-07T05:16:57;99509.28;;;-2.36;100.00
77877;BME280;67251;50.844;7.978;2024-03-07T05:19:35;99508.47;;;-2.37;100.00
77877;BME280;67251;50.844;7.978;2024-03-07T05:22:01;99505.66;;;-2.34;100.00
77877;BME280;67251;50.844;7.978;2024-03-07T05:24:30;99497.25;;;-2.39;100.00
77877;BME280;67251;50.844;7.978;2024-03-07T05:26:55;99503.53;;;-2.41;100.00
77877;BME280;67251;50.844;7.978;2024-03-07T05:29:22;99506.06;;;-2.40;100.00
77877;BME280;67251;50.844;7.978;2024-03-07T05:31:47;99505.41;;;-2.56;100.00
77877;BME280;67251;50.844;7.978;2024-03-07T05:34:14;99503.56;;;-2.68;100.00
77877;BME280;67251;50.844;7.978;2024-03-07T05:36:40;99510.97;;;-2.88;100.00
77877;BME280;67251;50.844;7.978;2024-03-07T05:39:10;99511.53;;;-3.10;100.00
77877;BME280;67251;50.844;7.978;2024-03-07T05:41:40;99505.75;;;-3.15;100.00
77877;BME280;67251;50.844;7.978;2024-03-07T05:44:07;99501.25;;;-3.13;100.00
77877;BME280;67251;50.844;7.978;2024-03-07T05:46:40;99499.34;;;-3.11;100.00
77877;BME280;67251;50.844;7.978;2024-03-07T05:49:14;99500.31;;;-3.12;100.00
77877;BME280;67251;50.844;7.978;2024-03-07T05:51:40;99501.91;;;-3.09;100.00
77877;BME280;67251;50.844;7.978;2024-03-07T05:54:07;99501.50;;;-3.03;100.00
77877;BME280;67251;50.844;7.978;2024-03-07T05:56:33;99506.28;;;-3.10;100.00
77877;BME280;67251;50.844;7.978;2024-03-07T05:59:04;99502.13;;;-3.26;100.00
77877;BME280;67251;50.844;7.978;2024-03-07T06:01:41;99511.41;;;-3.35;100.00
77877;BME280;67251;50.844;7.978;2024-03-07T06:04:06;99512.44;;;-3.38;100.00
77877;BME280;67251;50.844;7.978;2024-03-07T06:06:35;99507.50;;;-3.42;100.00
77877;BME280;67251;50.844;7.978;2024-03-07T06:09:10;99510.63;;;-3.23;100.00
77877;BME280;67251;50.844;7.978;2024-03-07T06:11:38;99505.88;;;-3.03;100.00
77877;BME280;67251;50.844;7.978;2024-03-07T06:14:05;99501.97;;;-2.84;100.00
77877;BME280;67251;50.844;7.978;2024-03-07T06:16:32;99506.91;;;-2.79;100.00
77877;BME280;67251;50.844;7.978;2024-03-07T06:19:02;99510.13;;;-2.88;100.00
77877;BME280;67251;50.844;7.978;2024-03-07T06:21:29;99510.97;;;-2.88;100.00
77877;BME280;67251;50.844;7.978;2024-03-07T06:23:57;99510.97;;;-2.88;100.00
77877;BME280;67251;50.844;7.978;2024-03-07T06:26:31;99505.13;;;-2.78;100.00
77877;BME280;67251;50.844;7.978;2024-03-07T06:29:06;99503.72;;;-2.57;100.00
77877;BME280;67251;50.844;7.978;2024-03-07T06:31:33;99505.81;;;-2.49;100.00
77877;BME280;67251;50.844;7.978;2024-03-07T06:33:58;99504.97;;;-2.50;100.00
77877;BME280;67251;50.844;7.978;2024-03-07T06:36:24;99503.94;;;-2.47;100.00
77877;BME280;67251;50.844;7.978;2024-03-07T06:38:50;99505.00;;;-2.37;100.00
77877;BME280;67251;50.844;7.978;2024-03-07T06:41:16;99497.88;;;-2.22;100.00
77877;BME280;67251;50.844;7.978;2024-03-07T06:43:43;99491.94;;;-2.12;100.00
77877;BME280;67251;50.844;7.978;2024-03-07T06:46:10;99501.69;;;-2.01;100.00
77877;BME280;67251;50.844;7.978;2024-03-07T06:48:35;99506.28;;;-1.92;100.00
77877;BME280;67251;50.844;7.978;2024-03-07T06:51:01;99497.25;;;-1.88;100.00
77877;BME280;67251;50.844;7.978;2024-03-07T06:53:26;99494.94;;;-1.80;100.00
77877;BME280;67251;50.844;7.978;2024-03-07T06:55:53;99495.75;;;-1.66;100.00
77877;BME280;67251;50.844;7.978;2024-03-07T06:58:22;99491.34;;;-1.66;100.00
77877;BME280;67251;50.844;7.978;2024-03-07T07:00:48;99483.56;;;-1.55;100.00
77877;BME280;67251;50.844;7.978;2024-03-07T07:03:17;99495.53;;;-1.50;100.00
77877;BME280;67251;50.844;7.978;2024-03-07T07:05:43;99492.97;;;-1.39;100.00
77877;BME280;67251;50.844;7.978;2024-03-07T07:08:09;99488.72;;;-1.29;100.00
77877;BME280;67251;50.844;7.978;2024-03-07T07:10:35;99494.78;;;-1.16;100.00
77877;BME280;67251;50.844;7.978;2024-03-07T07:13:02;99492.03;;;-1.14;100.00
77877;BME280;67251;50.844;7.978;2024-03-07T07:15:29;99486.94;;;-1.05;100.00
77877;BME280;67251;50.844;7.978;2024-03-07T07:17:55;99486.53;;;-0.98;100.00
77877;BME280;67251;50.844;7.978;2024-03-07T07:20:20;99487.19;;;-0.84;100.00
77877;BME280;67251;50.844;7.978;2024-03-07T07:22:47;99485.31;;;-0.70;100.00
77877;BME280;67251;50.844;7.978;2024-03-07T07:25:13;99472.13;;;-0.46;100.00
77877;BME280;67251;50.844;7.978;2024-03-07T07:27:45;99464.03;;;-0.21;100.00
77877;BME280;67251;50.844;7.978;2024-03-07T07:30:12;99465.97;;;-0.01;100.00
77877;BME280;67251;50.844;7.978;2024-03-07T07:32:39;99461.69;;;0.21;100.00
77877;BME280;67251;50.844;7.978;2024-03-07T07:35:05;99458.84;;;0.79;100.00
77877;BME280;67251;50.844;7.978;2024-03-07T07:37:38;99453.47;;;1.54;100.00
77877;BME280;67251;50.844;7.978;2024-03-07T07:40:08;99457.41;;;1.60;100.00
77877;BME280;67251;50.844;7.978;2024-03-07T07:42:38;99441.75;;;2.19;100.00
77877;BME280;67251;50.844;7.978;2024-03-07T07:45:06;99445.94;;;3.01;100.00
77877;BME280;67251;50.844;7.978;2024-03-07T07:47:31;99442.13;;;3.91;100.00
77877;BME280;67251;50.844;7.978;2024-03-07T07:49:58;99443.25;;;3.78;100.00
77877;BME280;67251;50.844;7.978;2024-03-07T07:52:23;99445.09;;;4.88;100.00
77877;BME280;67251;50.844;7.978;2024-03-07T07:54:48;99436.09;;;5.34;92.99
77877;BME280;67251;50.844;7.978;2024-03-07T07:57:14;99430.94;;;6.29;82.59
77877;BME280;67251;50.844;7.978;2024-03-07T07:59:39;99440.09;;;5.56;83.84
77877;BME280;67251;50.844;7.978;2024-03-07T08:02:05;99438.69;;;5.08;80.77
77877;BME280;67251;50.844;7.978;2024-03-07T08:04:31;99448.22;;;4.83;86.81
77877;BME280;67251;50.844;7.978;2024-03-07T08:06:58;99442.41;;;5.16;82.99
77877;BME280;67251;50.844;7.978;2024-03-07T08:09:24;99452.16;;;5.51;80.75
77877;BME280;67251;50.844;7.978;2024-03-07T08:11:49;99435.41;;;5.76;75.31
77877;BME280;67251;50.844;7.978;2024-03-07T08:14:15;99449.19;;;5.36;75.38
77877;BME280;67251;50.844;7.978;2024-03-07T08:16:41;99448.69;;;5.32;78.11
77877;BME280;67251;50.844;7.978;2024-03-07T08:19:06;99441.44;;;4.99;77.36
77877;BME280;67251;50.844;7.978;2024-03-07T08:21:32;99440.63;;;4.88;78.80
77877;BME280;67251;50.844;7.978;2024-03-07T08:23:57;99437.59;;;5.81;72.69
77877;BME280;67251;50.844;7.978;2024-03-07T08:26:23;99429.81;;;6.98;69.14
77877;BME280;67251;50.844;7.978;2024-03-07T08:28:48;99416.81;;;7.85;63.54
77877;BME280;67251;50.844;7.978;2024-03-07T08:31:14;99433.78;;;6.94;64.95
77877;BME280;67251;50.844;7.978;2024-03-07T08:33:39;99427.50;;;6.02;68.72
77877;BME280;67251;50.844;7.978;2024-03-07T08:36:05;99442.31;;;5.25;72.24
77877;BME280;67251;50.844;7.978;2024-03-07T08:38:32;99437.59;;;4.83;75.00
77877;BME280;67251;50.844;7.978;2024-03-07T08:40:58;99438.06;;;4.79;75.50
77877;BME280;67251;50.844;7.978;2024-03-07T08:43:23;99441.22;;;4.65;76.28
77877;BME280;67251;50.844;7.978;2024-03-07T08:45:49;99437.56;;;4.48;76.52
77877;BME280;67251;50.844;7.978;2024-03-07T08:48:14;99432.16;;;4.40;77.55
77877;BME280;67251;50.844;7.978;2024-03-07T08:50:39;99434.91;;;4.20;77.46
77877;BME280;67251;50.844;7.978;2024-03-07T08:53:05;99432.09;;;4.22;77.93
77877;BME280;67251;50.844;7.978;2024-03-07T08:55:31;99428.56;;;4.31;77.04
77877;BME280;67251;50.844;7.978;2024-03-07T08:57:56;99430.66;;;4.27;77.68
77877;BME280;67251;50.844;7.978;2024-03-07T09:00:22;99422.88;;;4.26;76.08
77877;BME280;67251;50.844;7.978;2024-03-07T09:02:52;99430.94;;;4.34;76.96
77877;BME280;67251;50.844;7.978;2024-03-07T09:05:19;99426.19;;;4.55;76.32
77877;BME280;67251;50.844;7.978;2024-03-07T09:07:45;99422.97;;;4.79;74.56
77877;BME280;67251;50.844;7.978;2024-03-07T09:10:12;99429.53;;;4.85;73.45
77877;BME280;67251;50.844;7.978;2024-03-07T09:12:39;99427.50;;;4.69;73.49
77877;BME280;67251;50.844;7.978;2024-03-07T09:15:05;99432.63;;;4.80;74.29
77877;BME280;67251;50.844;7.978;2024-03-07T09:17:30;99424.94;;;4.77;73.23
77877;BME280;67251;50.844;7.978;2024-03-07T09:19:57;99418.69;;;4.96;73.18
77877;BME280;67251;50.844;7.978;2024-03-07T09:22:22;99412.91;;;5.01;72.75
77877;BME280;67251;50.844;7.978;2024-03-07T09:24:47;99414.81;;;5.08;72.37
77877;BME280;67251;50.844;7.978;2024-03-07T09:27:13;99412.81;;;5.46;71.62
77877;BME280;67251;50.844;7.978;2024-03-07T09:29:45;99403.03;;;5.47;70.29
77877;BME280;67251;50.844;7.978;2024-03-07T09:32:12;99406.50;;;5.73;69.75
77877;BME280;67251;50.844;7.978;2024-03-07T09:34:37;99403.97;;;5.63;69.69
77877;BME280;67251;50.844;7.978;2024-03-07T09:37:03;99401.09;;;5.83;69.18
77877;BME280;67251;50.844;7.978;2024-03-07T09:39:28;99399.09;;;6.03;68.61
77877;BME280;67251;50.844;7.978;2024-03-07T09:41:57;99398.44;;;6.09;68.79
77877;BME280;67251;50.844;7.978;2024-03-07T09:44:24;99401.31;;;5.89;68.71
77877;BME280;67251;50.844;7.978;2024-03-07T09:46:54;99397.38;;;6.28;68.53
77877;BME280;67251;50.844;7.978;2024-03-07T09:49:19;99405.75;;;6.49;67.02
77877;BME280;67251;50.844;7.978;2024-03-07T09:51:47;99405.47;;;6.60;66.57
77877;BME280;67251;50.844;7.978;2024-03-07T09:54:17;99406.59;;;6.50;66.78
77877;BME280;67251;50.844;7.978;2024-03-07T09:56:44;99403.56;;;7.11;65.61
77877;BME280;67251;50.844;7.978;2024-03-07T09:59:11;99400.06;;;7.43;64.35
77877;BME280;67251;50.844;7.978;2024-03-07T10:01:39;99391.69;;;7.87;62.48
77877;BME280;67251;50.844;7.978;2024-03-07T10:04:08;99404.19;;;7.79;62.05
77877;BME280;67251;50.844;7.978;2024-03-07T10:06:39;99394.88;;;7.66;61.79
77877;BME280;67251;50.844;7.978;2024-03-07T10:09:06;99401.25;;;8.13;60.88
77877;BME280;67251;50.844;7.978;2024-03-07T10:11:32;99392.66;;;8.42;59.60
77877;BME280;67251;50.844;7.978;2024-03-07T10:13:58;99390.13;;;8.80;58.16
77877;BME280;67251;50.844;7.978;2024-03-07T10:16:23;99399.09;;;8.08;58.67
77877;BME280;67251;50.844;7.978;2024-03-07T10:18:49;99393.84;;;8.48;59.06
77877;BME280;67251;50.844;7.978;2024-03-07T10:21:21;99389.44;;;8.86;57.63
77877;BME280;67251;50.844;7.978;2024-03-07T10:23:50;99386.97;;;8.53;57.72
77877;BME280;67251;50.844;7.978;2024-03-07T10:26:18;99400.50;;;8.35;58.47
77877;BME280;67251;50.844;7.978;2024-03-07T10:28:43;99398.03;;;8.34;57.81
77877;BME280;67251;50.844;7.978;2024-03-07T10:31:09;99404.13;;;8.03;59.33
77877;BME280;67251;50.844;7.978;2024-03-07T10:33:40;99402.53;;;7.78;60.23
77877;BME280;67251;50.844;7.978;2024-03-07T10:36:05;99402.53;;;7.69;60.81
77877;BME280;67251;50.844;7.978;2024-03-07T10:38:35;99399.50;;;7.81;60.39
77877;BME280;67251;50.844;7.978;2024-03-07T10:41:02;99408.06;;;7.43;61.15
77877;BME280;67251;50.844;7.978;2024-03-07T10:43:29;99402.22;;;7.32;61.84
77877;BME280;67251;50.844;7.978;2024-03-07T10:45:56;99410.66;;;6.78;64.20
77877;BME280;67251;50.844;7.978;2024-03-07T10:48:24;99402.00;;;6.76;64.39
77877;BME280;67251;50.844;7.978;2024-03-07T10:53:53;99402.91;;;7.26;64.14
77877;BME280;67251;50.844;7.978;2024-03-07T10:56:38;99398.56;;;7.49;62.49
77877;BME280;67251;50.844;7.978;2024-03-07T11:01:47;99406.06;;;7.54;62.86
77877;BME280;67251;50.844;7.978;2024-03-07T11:04:16;99409.88;;;7.51;62.88
77877;BME280;67251;50.844;7.978;2024-03-07T11:06:43;99407.06;;;7.12;63.21
77877;BME280;67251;50.844;7.978;2024-03-07T11:09:10;99395.19;;;6.82;64.33
77877;BME280;67251;50.844;7.978;2024-03-07T11:11:39;99390.66;;;6.50;65.75
77877;BME280;67251;50.844;7.978;2024-03-07T11:14:10;99396.97;;;6.57;66.59
77877;BME280;67251;50.844;7.978;2024-03-07T11:16:40;99390.44;;;6.43;65.88
77877;BME280;67251;50.844;7.978;2024-03-07T11:21:44;99389.34;;;6.20;67.74
77877;BME280;67251;50.844;7.978;2024-03-07T11:24:09;99385.84;;;6.11;68.34
77877;BME280;67251;50.844;7.978;2024-03-07T11:26:47;99386.59;;;5.95;69.21
77877;BME280;67251;50.844;7.978;2024-03-07T11:32:11;99379.38;;;5.87;69.90
77877;BME280;67251;50.844;7.978;2024-03-07T11:34:38;99374.72;;;6.07;69.81
77877;BME280;67251;50.844;7.978;2024-03-07T11:37:07;99373.72;;;6.08;69.48
77877;BME280;67251;50.844;7.978;2024-03-07T11:39:44;99365.75;;;6.08;69.77
77877;BME280;67251;50.844;7.978;2024-03-07T11:42:29;99365.63;;;6.18;69.40
77877;BME280;67251;50.844;7.978;2024-03-07T11:45:02;99355.69;;;6.28;69.13
77877;BME280;67251;50.844;7.978;2024-03-07T11:47:35;99347.75;;;6.36;69.15
77877;BME280;67251;50.844;7.978;2024-03-07T11:50:06;99359.78;;;6.14;69.00
77877;BME280;67251;50.844;7.978;2024-03-07T11:52:37;99350.31;;;6.12;69.49
77877;BME280;67251;50.844;7.978;2024-03-07T11:55:07;99354.16;;;5.83;70.62
77877;BME280;67251;50.844;7.978;2024-03-07T11:57:33;99346.44;;;5.72;70.91
77877;BME280;67251;50.844;7.978;2024-03-07T11:59:59;99339.47;;;5.71;71.06
77877;BME280;67251;50.844;7.978;2024-03-07T12:02:33;99333.03;;;5.82;71.44
77877;BME280;67251;50.844;7.978;2024-03-07T12:04:59;99337.97;;;5.95;70.98
77877;BME280;67251;50.844;7.978;2024-03-07T12:07:24;99327.91;;;6.14;70.28
77877;BME280;67251;50.844;7.978;2024-03-07T12:09:49;99328.69;;;5.99;69.89
77877;BME280;67251;50.844;7.978;2024-03-07T12:12:21;99326.03;;;6.07;69.80
77877;BME280;67251;50.844;7.978;2024-03-07T12:14:47;99308.44;;;5.98;69.17
77877;BME280;67251;50.844;7.978;2024-03-07T12:17:16;99319.47;;;5.85;69.91
77877;BME280;67251;50.844;7.978;2024-03-07T12:19:42;99319.09;;;5.80;69.97
77877;BME280;67251;50.844;7.978;2024-03-07T12:22:11;99314.03;;;5.60;70.19
77877;BME280;67251;50.844;7.978;2024-03-07T12:24:48;99313.97;;;5.52;70.67
77877;BME280;67251;50.844;7.978;2024-03-07T12:27:15;99310.56;;;5.68;71.19
77877;BME280;67251;50.844;7.978;2024-03-07T12:29:41;99289.56;;;5.83;70.25
77877;BME280;67251;50.844;7.978;2024-03-07T12:32:13;99293.31;;;5.98;70.14
77877;BME280;67251;50.844;7.978;2024-03-07T12:34:45;99298.78;;;5.97;67.93
77877;BME280;67251;50.844;7.978;2024-03-07T12:37:12;99286.81;;;5.93;66.97
77877;BME280;67251;50.844;7.978;2024-03-07T12:39:41;99283.88;;;6.04;66.35
77877;BME280;67251;50.844;7.978;2024-03-07T12:42:27;99283.19;;;6.02;64.65
77877;BME280;67251;50.844;7.978;2024-03-07T12:44:53;99285.34;;;5.98;64.45
77877;BME280;67251;50.844;7.978;2024-03-07T12:47:19;99278.53;;;5.96;64.76
77877;BME280;67251;50.844;7.978;2024-03-07T12:49:44;99276.41;;;6.15;63.61
77877;BME280;67251;50.844;7.978;2024-03-07T12:52:11;99274.09;;;6.12;63.23
77877;BME280;67251;50.844;7.978;2024-03-07T12:54:41;99274.72;;;6.06;63.46
77877;BME280;67251;50.844;7.978;2024-03-07T12:57:07;99275.44;;;6.25;62.98
77877;BME280;67251;50.844;7.978;2024-03-07T12:59:39;99271.81;;;6.26;62.07
77877;BME280;67251;50.844;7.978;2024-03-07T13:02:09;99263.50;;;6.29;62.19
77877;BME280;67251;50.844;7.978;2024-03-07T13:04:36;99254.91;;;6.59;61.32
77877;BME280;67251;50.844;7.978;2024-03-07T13:07:07;99259.41;;;6.83;60.83
77877;BME280;67251;50.844;7.978;2024-03-07T13:09:33;99257.84;;;7.05;60.26
77877;BME280;67251;50.844;7.978;2024-03-07T13:11:59;99257.88;;;6.73;60.12